Impacts METAR Board INFO
IDs:

KJFK - New York/Kennedy Int, NY, US

Updated at: 0323 UTC 22 Nov 2017
Potential Impact None Slight Moderate High
Time21/15Z 21/16Z 21/17Z 21/18Z 21/19Z 21/20Z 21/21Z 21/22Z 21/23Z 22/00Z 22/01Z 22/02Z 22/03Z
VIS10 10 10 10 10 10 10 10 10 10 10 10 10
CIG-- -- 250 250 250 250 250 250 250 250 250 250 250
CoverSCTSCTBKNBKNBKNBKNBKNBKNBKNBKNBKNBKNBKN
FltCatVFRVFRVFRVFRVFRVFRVFRVFRVFRVFRVFRVFRVFR
WX--------------------------
WDir210200220200190190190190190200200220220
WSpd14 14 19 13 13 14 15 15 16 15 11 7 8
WGst-- -- -- -- -- -- -- -- -- -- -- -- --
Raw hourly METARs
KJFK 211451Z 21014KT 10SM FEW170 SCT250 11/02 A3015 RMK AO2 SLP210 T01110022 58000
KJFK 211551Z 20014KT 10SM FEW170 SCT250 12/02 A3014 RMK AO2 SLP205 T01220022
KJFK 211651Z 22019KT 10SM FEW170 BKN250 14/01 A3011 RMK AO2 SLP196 T01390006
KJFK 211751Z 20013KT 10SM BKN250 14/02 A3008 RMK AO2 SLP186 T01390017 10139 20056 58025
KJFK 211851Z 19013KT 10SM FEW200 BKN250 13/07 A3006 RMK AO2 SLP179 T01330067
KJFK 211951Z 19014KT 10SM BKN250 12/06 A3005 RMK AO2 SLP174 T01220056
KJFK 212051Z 19015KT 10SM BKN250 12/06 A3004 RMK AO2 SLP172 T01170061 56014
KJFK 212151Z 19015KT 10SM BKN250 11/07 A3004 RMK AO2 SLP172 T01110067
KJFK 212251Z 19016KT 10SM BKN250 11/06 A3005 RMK AO2 SLP175 T01110061
KJFK 212351Z 20015KT 10SM BKN250 11/06 A3007 RMK AO2 SLP181 T01110056 10139 20111 53009
KJFK 220051Z 20011KT 10SM BKN250 10/06 A3007 RMK AO2 SLP182 T01000061
KJFK 220151Z 22007KT 10SM BKN250 09/06 A3007 RMK AO2 SLP181 T00940056
KJFK 220251Z 22008KT 10SM BKN250 09/06 A3007 RMK AO2 SLP181 T00940061 50000